createdAt,value
2023-01-02T00:00:22.434Z,79.73
2023-01-02T00:02:49.346Z,79.58
2023-01-02T00:05:15.974Z,79.42
2023-01-02T00:07:42.502Z,78.81
2023-01-02T00:10:09.097Z,78.81
2023-01-02T00:12:36.196Z,78.75
2023-01-02T00:15:03.683Z,78.86
2023-01-02T00:17:30.217Z,79.12
2023-01-02T00:19:57.208Z,78.50
2023-01-02T00:22:24.012Z,78.59
2023-01-02T00:24:50.523Z,78.23
2023-01-02T00:27:17.049Z,78.43
2023-01-02T00:29:43.539Z,78.39
2023-01-02T00:32:10.049Z,79.02
2023-01-02T00:34:36.557Z,78.92
2023-01-02T00:37:03.118Z,78.29
2023-01-02T00:39:29.697Z,78.79
2023-01-02T00:41:56.244Z,78.36
2023-01-02T00:44:22.788Z,78.25
2023-01-02T00:46:49.330Z,78.37
2023-01-02T00:49:15.858Z,79.24
2023-01-02T00:51:42.389Z,78.31
2023-01-02T00:54:08.987Z,78.31
2023-01-02T00:56:37.753Z,78.59
2023-01-02T00:59:04.254Z,78.45
2023-01-02T01:01:33.399Z,78.49
2023-01-02T01:04:01.267Z,79.15
2023-01-02T01:06:27.764Z,78.73
2023-01-02T01:08:54.262Z,78.73
2023-01-02T01:11:20.753Z,79.39
2023-01-02T01:13:48.060Z,80.66
2023-01-02T01:16:17.598Z,81.29
2023-01-02T01:18:44.597Z,82.65
2023-01-02T01:21:17.039Z,82.98
2023-01-02T01:23:44.119Z,83.54
2023-01-02T01:26:13.169Z,83.70
2023-01-02T01:28:40.269Z,84.63
2023-01-02T01:31:10.376Z,84.91
2023-01-02T01:33:39.623Z,84.60
2023-01-02T01:36:11.458Z,85.36
2023-01-02T01:38:40.805Z,85.88
2023-01-02T01:41:08.312Z,85.87
2023-01-02T01:43:50.273Z,86.19
2023-01-02T01:46:22.777Z,86.27
2023-01-02T01:48:58.667Z,86.36
2023-01-02T01:51:27.640Z,86.45
2023-01-02T01:54:03.883Z,86.43
2023-01-02T01:56:30.570Z,86.30
2023-01-02T01:58:57.073Z,86.33
2023-01-02T02:01:27.150Z,86.28
2023-01-02T02:03:54.000Z,85.97
2023-01-02T02:06:21.091Z,86.45
2023-01-02T02:09:02.775Z,86.10
2023-01-02T02:11:30.661Z,86.27
2023-01-02T02:13:59.711Z,86.17
2023-01-02T02:16:42.606Z,86.20
2023-01-02T02:19:30.286Z,86.92
2023-01-02T02:22:32.070Z,86.60
2023-01-02T02:25:39.858Z,86.13
2023-01-02T02:28:21.280Z,86.62
2023-01-02T02:31:06.469Z,86.07
2023-01-02T02:33:53.182Z,86.12
2023-01-02T02:36:30.596Z,86.69
2023-01-02T02:39:25.716Z,86.89
2023-01-02T02:42:20.062Z,87.26
2023-01-02T02:45:14.794Z,87.73
2023-01-02T02:48:01.517Z,87.68
2023-01-02T02:50:42.119Z,87.33
2023-01-02T02:53:26.224Z,87.45
2023-01-02T02:55:56.640Z,87.39
2023-01-02T02:58:25.622Z,87.55
2023-01-02T03:01:05.283Z,87.57
2023-01-02T03:03:34.449Z,87.42
2023-01-02T03:06:09.514Z,87.21
2023-01-02T03:08:42.451Z,87.56
2023-01-02T03:11:10.229Z,87.06
2023-01-02T03:13:42.284Z,87.34
2023-01-02T03:16:20.762Z,87.17
2023-01-02T03:18:55.676Z,87.59
2023-01-02T03:21:31.512Z,87.42
2023-01-02T03:24:04.461Z,87.73
2023-01-02T03:26:33.189Z,87.79
2023-01-02T03:29:08.511Z,87.86
2023-01-02T03:31:39.586Z,88.45
2023-01-02T03:34:13.775Z,88.08
2023-01-02T03:36:43.924Z,88.23
2023-01-02T03:39:18.039Z,88.76
2023-01-02T03:41:50.589Z,89.22
2023-01-02T03:44:19.224Z,89.18
2023-01-02T03:46:54.206Z,89.12
2023-01-02T03:49:32.120Z,89.58
2023-01-02T03:51:59.314Z,90.05
2023-01-02T03:54:28.209Z,89.70
2023-01-02T03:56:59.775Z,89.98
2023-01-02T03:59:36.241Z,89.82
2023-01-02T04:02:11.047Z,90.11
2023-01-02T04:04:54.090Z,89.97
2023-01-02T04:07:38.771Z,90.15
2023-01-02T04:10:08.360Z,90.40
2023-01-02T04:12:38.860Z,90.13
2023-01-02T04:15:09.234Z,90.08
2023-01-02T04:17:41.813Z,89.88
2023-01-02T04:20:12.039Z,89.52
2023-01-02T04:22:57.626Z,89.27
2023-01-02T04:25:29.262Z,89.59
2023-01-02T04:28:06.669Z,89.36
2023-01-02T04:30:37.801Z,89.16
2023-01-02T04:33:08.779Z,88.83
2023-01-02T04:35:35.753Z,88.95
2023-01-02T04:38:10.569Z,88.49
2023-01-02T04:40:38.237Z,88.20
2023-01-02T04:43:08.787Z,88.62
2023-01-02T04:45:35.304Z,88.16
2023-01-02T04:48:01.889Z,87.46
2023-01-02T04:50:28.432Z,87.37
2023-01-02T04:52:54.991Z,87.28
2023-01-02T04:55:21.531Z,87.21
2023-01-02T04:57:48.077Z,86.98
2023-01-02T05:00:15.579Z,86.65
2023-01-02T05:02:42.226Z,86.75
2023-01-02T05:05:09.271Z,86.85
2023-01-02T05:07:37.078Z,86.49
2023-01-02T05:10:04.388Z,86.39
2023-01-02T05:12:35.142Z,85.51
2023-01-02T05:15:02.826Z,85.70
2023-01-02T05:17:29.942Z,85.52
2023-01-02T05:19:56.497Z,85.46
2023-01-02T05:22:41.949Z,85.00
2023-01-02T05:25:09.378Z,85.02
2023-01-02T05:27:36.290Z,85.46
2023-01-02T05:30:04.330Z,84.99
2023-01-02T05:32:30.806Z,85.04
2023-01-02T05:34:57.338Z,85.38
2023-01-02T05:37:33.416Z,85.12
2023-01-02T05:40:00.132Z,85.36
2023-01-02T05:42:26.694Z,84.82
2023-01-02T05:44:53.279Z,85.63
2023-01-02T05:47:20.000Z,85.27
2023-01-02T05:49:46.512Z,84.65
2023-01-02T05:52:13.105Z,85.00
2023-01-02T05:54:39.625Z,85.01
2023-01-02T05:57:06.361Z,85.18
2023-01-02T05:59:36.107Z,84.94
2023-01-02T06:02:03.129Z,85.72
2023-01-02T06:04:30.137Z,85.81
2023-01-02T06:06:56.629Z,86.04
2023-01-02T06:09:23.180Z,86.12
2023-01-02T06:11:49.665Z,86.14
2023-01-02T06:14:16.336Z,86.26
2023-01-02T06:16:42.983Z,86.49
2023-01-02T06:19:09.591Z,86.41
2023-01-02T06:21:36.130Z,87.05
2023-01-02T06:24:02.658Z,87.11
2023-01-02T06:26:34.586Z,86.98
2023-01-02T06:29:02.944Z,87.53
2023-01-02T06:31:29.901Z,87.30
2023-01-02T06:34:01.854Z,87.59
2023-01-02T06:36:33.916Z,88.00
2023-01-02T06:39:00.793Z,87.38
2023-01-02T06:41:27.435Z,87.50
2023-01-02T06:43:54.272Z,88.08
2023-01-02T06:46:24.309Z,88.24
2023-01-02T06:48:50.938Z,88.35
2023-01-02T06:51:20.439Z,88.57
2023-01-02T06:53:47.203Z,89.18
2023-01-02T06:56:16.730Z,89.35
2023-01-02T06:58:43.495Z,89.05
2023-01-02T07:01:12.956Z,89.35
2023-01-02T07:03:40.024Z,89.77
2023-01-02T07:06:13.489Z,89.74
2023-01-02T07:08:40.674Z,89.29
2023-01-02T07:11:08.829Z,89.28
2023-01-02T07:13:35.427Z,89.34
2023-01-02T07:16:06.316Z,89.41
2023-01-02T07:18:34.078Z,89.52
2023-01-02T07:21:00.813Z,89.35
2023-01-02T07:23:27.740Z,88.75
2023-01-02T07:25:59.567Z,89.04
2023-01-02T07:28:26.551Z,89.29
2023-01-02T07:31:00.435Z,89.12
2023-01-02T07:33:31.035Z,88.37
2023-01-02T07:36:06.819Z,88.56
2023-01-02T07:38:34.499Z,88.67
2023-01-02T07:41:01.360Z,88.96
2023-01-02T07:43:27.865Z,89.19
2023-01-02T07:45:54.517Z,88.43
2023-01-02T07:48:21.195Z,89.03
2023-01-02T07:50:47.749Z,89.10
2023-01-02T07:53:14.489Z,89.10
2023-01-02T07:55:41.117Z,88.92
2023-01-02T07:58:07.691Z,88.28
2023-01-02T08:00:34.284Z,88.33
2023-01-02T08:03:02.491Z,88.37
2023-01-02T08:05:29.043Z,87.70
2023-01-02T08:07:55.581Z,88.08
2023-01-02T08:10:22.841Z,88.44
2023-01-02T08:12:49.351Z,88.89
2023-01-02T08:15:15.945Z,89.15
2023-01-02T08:17:42.510Z,89.39
2023-01-02T08:20:10.452Z,89.34
2023-01-02T08:22:37.606Z,89.85
2023-01-02T08:25:04.696Z,89.79
2023-01-02T08:27:31.342Z,89.90
2023-01-02T08:29:57.909Z,90.35
2023-01-02T08:32:25.155Z,90.41
2023-01-02T08:34:51.728Z,90.48
2023-01-02T08:37:18.516Z,89.85
2023-01-02T08:39:45.091Z,89.97
2023-01-02T08:42:12.954Z,90.30
2023-01-02T08:44:39.476Z,90.62
2023-01-02T08:47:06.150Z,90.13
2023-01-02T08:49:32.737Z,88.89
2023-01-02T08:51:59.300Z,89.08
2023-01-02T08:54:25.857Z,88.66
2023-01-02T08:56:55.075Z,87.52
2023-01-02T08:59:24.561Z,87.91
2023-01-02T09:01:52.360Z,87.76
2023-01-02T09:04:19.519Z,87.66
2023-01-02T09:06:46.395Z,87.52
2023-01-02T09:09:15.636Z,87.84
2023-01-02T09:11:50.373Z,88.08
2023-01-02T09:14:18.656Z,88.26
2023-01-02T09:16:45.261Z,88.50
2023-01-02T09:19:11.864Z,87.83
2023-01-02T09:21:38.408Z,87.66
2023-01-02T09:24:05.868Z,87.65
2023-01-02T09:26:35.473Z,87.81
2023-01-02T09:29:02.022Z,87.12
2023-01-02T09:31:28.677Z,86.72
2023-01-02T09:33:55.380Z,87.06
2023-01-02T09:36:22.919Z,86.22
2023-01-02T09:38:57.737Z,86.41
2023-01-02T09:41:30.345Z,86.19
2023-01-02T09:44:05.653Z,86.15
2023-01-02T09:46:40.704Z,85.66
2023-01-02T09:49:10.765Z,85.53
2023-01-02T09:51:37.861Z,85.67
2023-01-02T09:54:06.376Z,85.44
2023-01-02T09:56:38.450Z,84.76
2023-01-02T09:59:16.824Z,84.64
2023-01-02T10:02:21.478Z,84.91
2023-01-02T10:05:20.611Z,85.11
2023-01-02T10:07:58.150Z,85.59
2023-01-02T10:10:34.758Z,85.27
2023-01-02T10:13:07.051Z,85.21
2023-01-02T10:15:34.197Z,84.88
2023-01-02T10:18:14.164Z,85.28
2023-01-02T10:20:44.805Z,84.82
2023-01-02T10:23:17.718Z,85.07
2023-01-02T10:25:55.378Z,85.18
2023-01-02T10:28:44.247Z,85.10
2023-01-02T10:31:23.893Z,85.05
2023-01-02T10:33:54.037Z,84.77
2023-01-02T10:36:23.705Z,84.45
2023-01-02T10:38:53.985Z,84.68
2023-01-02T10:41:20.669Z,84.33
2023-01-02T10:43:54.341Z,84.14
2023-01-02T10:46:20.970Z,83.99
2023-01-02T10:48:52.251Z,84.10
2023-01-02T10:51:19.142Z,84.48
2023-01-02T10:54:03.399Z,84.35
2023-01-02T10:56:32.641Z,83.91
2023-01-02T10:58:59.951Z,83.92
2023-01-02T11:01:27.359Z,84.50
2023-01-02T11:03:57.729Z,84.27
2023-01-02T11:06:39.432Z,84.02
2023-01-02T11:09:28.273Z,83.11
2023-01-02T11:11:57.761Z,82.58
2023-01-02T11:14:32.665Z,83.23
2023-01-02T11:17:04.496Z,83.19
2023-01-02T11:19:31.651Z,83.57
2023-01-02T11:21:58.330Z,83.19
2023-01-02T11:24:28.554Z,83.61
2023-01-02T11:26:56.026Z,83.36
2023-01-02T11:29:32.452Z,83.54
2023-01-02T11:32:04.235Z,83.25
2023-01-02T11:34:36.745Z,83.35
2023-01-02T11:37:06.120Z,83.31
2023-01-02T11:39:34.549Z,83.24
2023-01-02T11:42:26.702Z,83.15
2023-01-02T11:45:01.375Z,83.03
2023-01-02T11:47:44.639Z,82.97
2023-01-02T11:50:16.153Z,82.47
2023-01-02T11:52:54.888Z,82.16
2023-01-02T11:55:46.603Z,82.56
2023-01-02T11:58:30.364Z,82.49
2023-01-02T12:01:25.818Z,82.20
2023-01-02T12:03:52.648Z,81.77
2023-01-02T12:06:22.385Z,80.83
2023-01-02T12:09:26.946Z,81.19
2023-01-02T12:12:28.616Z,80.74
2023-01-02T12:15:07.419Z,80.53
2023-01-02T12:18:04.153Z,80.53
2023-01-02T12:20:41.282Z,80.35
2023-01-02T12:23:19.940Z,79.98
2023-01-02T12:25:49.485Z,80.17
2023-01-02T12:28:37.541Z,80.41
2023-01-02T12:31:21.253Z,80.47
2023-01-02T12:33:56.461Z,80.62
2023-01-02T12:36:32.336Z,80.40
2023-01-02T12:39:25.031Z,80.93
2023-01-02T12:42:26.118Z,80.86
2023-01-02T12:44:55.061Z,81.01
2023-01-02T12:47:29.306Z,80.71
2023-01-02T12:50:22.215Z,80.85
2023-01-02T12:53:13.759Z,79.62
2023-01-02T12:55:51.039Z,80.14
2023-01-02T12:58:36.751Z,80.51
2023-01-02T13:01:44.807Z,80.39
2023-01-02T13:04:20.296Z,80.45
2023-01-02T13:07:33.094Z,79.87
2023-01-02T13:10:02.976Z,80.09
2023-01-02T13:12:32.779Z,80.20
2023-01-02T13:15:02.946Z,80.14
2023-01-02T13:17:50.611Z,80.39
2023-01-02T13:20:19.853Z,80.35
2023-01-02T13:23:05.746Z,80.50
2023-01-02T13:25:45.978Z,80.32
2023-01-02T13:28:14.255Z,80.16
2023-01-02T13:31:05.511Z,79.98
2023-01-02T13:33:47.515Z,79.50
2023-01-02T13:36:26.985Z,79.85
2023-01-02T13:38:57.955Z,80.03
2023-01-02T13:41:26.899Z,79.16
2023-01-02T13:43:59.023Z,78.73
2023-01-02T13:49:21.285Z,79.26
2023-01-02T13:51:47.977Z,79.29
2023-01-02T13:54:20.997Z,79.12
2023-01-02T13:57:17.627Z,78.92
2023-01-02T14:00:20.239Z,78.94
2023-01-02T14:03:22.885Z,78.87
2023-01-02T14:06:03.548Z,79.06
2023-01-02T14:08:37.853Z,78.96
2023-01-02T14:11:17.867Z,78.44
2023-01-02T14:13:49.250Z,77.94
2023-01-02T14:16:46.507Z,77.98
2023-01-02T14:19:12.941Z,77.11
2023-01-02T14:21:45.659Z,77.01
2023-01-02T14:24:29.825Z,77.26
2023-01-02T14:27:01.843Z,77.41
2023-01-02T14:29:30.494Z,77.59
2023-01-02T14:32:00.520Z,77.21
2023-01-02T14:34:27.351Z,77.20
2023-01-02T14:36:59.432Z,77.62
2023-01-02T14:39:34.755Z,77.25
2023-01-02T14:42:31.403Z,77.11
2023-01-02T14:45:03.106Z,76.81
2023-01-02T14:47:48.049Z,77.48
2023-01-02T14:50:21.106Z,78.12
2023-01-02T14:52:55.436Z,78.11
2023-01-02T14:55:25.227Z,78.34
2023-01-02T14:57:53.840Z,77.83
2023-01-02T15:00:26.405Z,78.10
2023-01-02T15:03:17.480Z,78.67
2023-01-02T15:06:05.614Z,78.84
2023-01-02T15:08:53.313Z,78.78
2023-01-02T15:11:40.959Z,78.61
2023-01-02T15:14:13.576Z,79.15
2023-01-02T15:16:48.752Z,79.44
2023-01-02T15:19:20.464Z,79.08
2023-01-02T15:21:47.272Z,79.24
2023-01-02T15:24:32.017Z,79.34
2023-01-02T15:27:22.878Z,79.06
2023-01-02T15:29:53.916Z,79.32
2023-01-02T15:32:23.621Z,79.33
2023-01-02T15:34:50.731Z,79.38
2023-01-02T15:37:23.000Z,79.44
2023-01-02T15:39:53.674Z,79.82
2023-01-02T15:42:43.933Z,79.90
2023-01-02T15:45:20.063Z,80.01
2023-01-02T15:47:49.324Z,80.17
2023-01-02T15:50:22.579Z,80.65
2023-01-02T15:52:57.260Z,80.87
2023-01-02T15:55:24.333Z,80.69
2023-01-02T15:57:53.847Z,80.35
2023-01-02T16:00:36.175Z,80.38
2023-01-02T16:03:03.906Z,80.14
2023-01-02T16:05:43.463Z,80.49
2023-01-02T16:08:18.716Z,80.62
2023-01-02T16:10:50.764Z,80.48
2023-01-02T16:13:47.307Z,80.61
2023-01-02T16:16:15.930Z,80.70
2023-01-02T16:18:47.140Z,81.05
2023-01-02T16:21:15.302Z,81.58
2023-01-02T16:23:47.934Z,81.87
2023-01-02T16:26:14.903Z,81.76
2023-01-02T16:28:43.839Z,81.67
2023-01-02T16:31:18.064Z,81.95
2023-01-02T16:33:46.336Z,82.18
2023-01-02T16:36:12.979Z,82.52
2023-01-02T16:38:53.079Z,82.22
2023-01-02T16:41:47.974Z,84.05
2023-01-02T16:44:16.650Z,84.03
2023-01-02T16:46:45.471Z,83.38
2023-01-02T16:49:15.675Z,83.57
2023-01-02T16:51:45.383Z,83.59
2023-01-02T16:54:16.975Z,83.32
2023-01-02T16:56:43.784Z,83.57
2023-01-02T16:59:10.461Z,83.39
2023-01-02T17:01:37.248Z,83.23
2023-01-02T17:04:04.924Z,82.65
2023-01-02T17:06:31.721Z,82.16
2023-01-02T17:08:58.228Z,82.91
2023-01-02T17:11:24.901Z,82.92
2023-01-02T17:13:52.794Z,82.79
2023-01-02T17:16:20.365Z,81.80
2023-01-02T17:18:47.130Z,82.09
2023-01-02T17:21:13.738Z,81.52
2023-01-02T17:23:40.341Z,81.20
2023-01-02T17:26:06.989Z,80.79
2023-01-02T17:28:33.505Z,80.91
2023-01-02T17:31:00.029Z,80.48
2023-01-02T17:33:26.535Z,81.33
2023-01-02T17:35:53.033Z,81.74
2023-01-02T17:38:19.873Z,81.03
2023-01-02T17:40:46.400Z,81.21
2023-01-02T17:43:12.947Z,80.84
2023-01-02T17:45:42.359Z,80.67
2023-01-02T17:48:12.345Z,80.84
2023-01-02T17:50:41.035Z,80.91
2023-01-02T17:53:08.008Z,81.39
2023-01-02T17:55:34.843Z,81.35
2023-01-02T17:58:01.698Z,81.14
2023-01-02T18:00:28.640Z,81.00
2023-01-02T18:03:05.843Z,81.25
2023-01-02T18:05:35.436Z,81.42
2023-01-02T18:08:02.452Z,81.86
2023-01-02T18:10:33.085Z,81.77
2023-01-02T18:13:00.055Z,81.52
2023-01-02T18:15:26.696Z,81.92
2023-01-02T18:17:55.181Z,81.78
2023-01-02T18:20:23.293Z,81.80
2023-01-02T18:22:55.880Z,81.87
2023-01-02T18:25:25.332Z,82.11
2023-01-02T18:27:59.686Z,82.02
2023-01-02T18:30:28.873Z,82.12
2023-01-02T18:33:13.336Z,82.23
2023-01-02T18:35:57.174Z,82.49
2023-01-02T18:38:30.964Z,82.60
2023-01-02T18:40:57.549Z,82.77
2023-01-02T18:43:31.794Z,82.52
2023-01-02T18:46:00.538Z,82.61
2023-01-02T18:48:27.644Z,82.59
2023-01-02T18:51:00.812Z,82.42
2023-01-02T18:53:43.510Z,82.39
2023-01-02T18:56:18.917Z,83.36
2023-01-02T18:59:14.695Z,82.75
2023-01-02T19:01:50.297Z,83.42
2023-01-02T19:04:28.424Z,83.31
2023-01-02T19:07:01.877Z,83.32
2023-01-02T19:09:34.875Z,82.82
2023-01-02T19:12:32.306Z,83.32
2023-01-02T19:15:21.015Z,83.06
2023-01-02T19:17:47.496Z,83.29
2023-01-02T19:20:14.826Z,83.04
2023-01-02T19:22:41.290Z,83.28
2023-01-02T19:25:23.022Z,82.81
2023-01-02T19:27:54.068Z,83.33
2023-01-02T19:30:30.950Z,82.84
2023-01-02T19:32:58.074Z,82.75
2023-01-02T19:35:24.751Z,82.26
2023-01-02T19:37:51.924Z,82.40
2023-01-02T19:40:23.184Z,82.68
2023-01-02T19:42:54.489Z,82.74
2023-01-02T19:45:23.438Z,82.39
2023-01-02T19:47:50.908Z,82.55
2023-01-02T19:50:23.297Z,82.84
2023-01-02T19:52:50.256Z,82.67
2023-01-02T19:55:20.368Z,82.66
2023-01-02T19:57:47.376Z,82.92
2023-01-02T20:00:16.270Z,82.80
2023-01-02T20:02:45.824Z,82.70
2023-01-02T20:05:17.629Z,83.02
2023-01-02T20:07:48.158Z,83.23
2023-01-02T20:10:14.856Z,83.14
2023-01-02T20:12:41.581Z,83.41
2023-01-02T20:15:13.003Z,83.76
2023-01-02T20:17:39.798Z,83.51
2023-01-02T20:20:08.926Z,83.24
2023-01-02T20:22:36.197Z,83.51
2023-01-02T20:25:03.241Z,83.31
2023-01-02T20:27:29.785Z,83.42
2023-01-02T20:29:56.318Z,83.40
2023-01-02T20:32:23.733Z,83.78
2023-01-02T20:34:51.194Z,83.82
2023-01-02T20:37:21.087Z,83.71
2023-01-02T20:39:49.953Z,83.52
2023-01-02T20:42:16.825Z,84.02
2023-01-02T20:44:46.999Z,83.73
2023-01-02T20:47:13.655Z,83.72
2023-01-02T20:49:40.786Z,83.97
2023-01-02T20:52:08.333Z,83.80
2023-01-02T20:54:35.524Z,83.69
2023-01-02T20:57:02.437Z,83.92
2023-01-02T20:59:29.000Z,83.67
2023-01-02T21:01:55.712Z,83.83
2023-01-02T21:04:24.894Z,83.56
2023-01-02T21:06:55.924Z,83.39
2023-01-02T21:09:22.605Z,83.42
2023-01-02T21:11:49.212Z,83.07
2023-01-02T21:14:18.045Z,83.53
2023-01-02T21:16:44.570Z,83.20
2023-01-02T21:19:11.035Z,83.44
2023-01-02T21:21:37.637Z,83.41
2023-01-02T21:24:04.354Z,83.01
2023-01-02T21:26:30.898Z,83.01
2023-01-02T21:28:57.445Z,83.17
2023-01-02T21:31:24.260Z,83.01
2023-01-02T21:33:50.763Z,83.08
2023-01-02T21:36:17.416Z,82.95
2023-01-02T21:38:44.122Z,83.03
2023-01-02T21:41:30.219Z,83.19
2023-01-02T21:43:56.799Z,83.26
2023-01-02T21:46:23.441Z,83.26
2023-01-02T21:48:50.143Z,83.23
2023-01-02T21:51:16.705Z,83.49
2023-01-02T21:53:43.270Z,83.26
2023-01-02T21:56:09.977Z,83.82
2023-01-02T21:58:36.550Z,83.30
2023-01-02T22:01:03.298Z,83.69
2023-01-02T22:03:30.041Z,83.53
2023-01-02T22:05:56.646Z,83.34
2023-01-02T22:08:23.258Z,83.63
2023-01-02T22:10:49.956Z,83.41
2023-01-02T22:13:16.726Z,83.25
2023-01-02T22:15:46.315Z,83.53
2023-01-02T22:18:13.090Z,83.51
2023-01-02T22:20:42.283Z,83.71
2023-01-02T22:23:08.797Z,83.74
2023-01-02T22:25:35.902Z,83.35
2023-01-02T22:28:03.630Z,83.75
2023-01-02T22:30:34.552Z,83.71
2023-01-02T22:33:02.176Z,83.40
2023-01-02T22:35:28.952Z,83.63
2023-01-02T22:37:57.378Z,83.87
2023-01-02T22:40:24.138Z,83.92
2023-01-02T22:43:02.208Z,83.78
2023-01-02T22:45:35.655Z,83.49
2023-01-02T22:48:07.455Z,84.15
2023-01-02T22:50:41.717Z,84.12
2023-01-02T22:53:19.017Z,83.90
2023-01-02T22:55:45.919Z,83.67
2023-01-02T22:58:13.227Z,83.75
2023-01-02T23:00:39.984Z,84.10
2023-01-02T23:03:11.837Z,84.33
2023-01-02T23:05:38.418Z,84.60
2023-01-02T23:08:05.126Z,84.43
2023-01-02T23:10:31.823Z,84.43
2023-01-02T23:12:58.493Z,84.67
2023-01-02T23:15:25.018Z,84.68
2023-01-02T23:18:10.274Z,84.48
2023-01-02T23:20:36.754Z,84.69
2023-01-02T23:23:03.279Z,84.57
2023-01-02T23:25:29.822Z,84.23
2023-01-02T23:27:56.505Z,84.16
2023-01-02T23:30:23.010Z,83.99
2023-01-02T23:32:49.608Z,84.34
2023-01-02T23:35:16.220Z,84.14
2023-01-02T23:37:42.766Z,84.14
2023-01-02T23:40:09.877Z,84.10
2023-01-02T23:42:36.399Z,84.14
2023-01-02T23:45:03.341Z,84.01
2023-01-02T23:47:29.785Z,84.04
2023-01-02T23:49:56.360Z,83.93
2023-01-02T23:52:22.976Z,83.66
2023-01-02T23:54:49.462Z,83.75
2023-01-02T23:57:15.989Z,83.50
2023-01-02T23:59:42.577Z,83.24
